Baldwinsville, NY

11:02 AM EDT on June 30, 2015 (GMT -0400)
Village of Baldwinsville | | Change Station
CLOSE
Current Station
Personal Weather Station
Location: Baldwinsville, NY
Elevation: 450 ft
Nearby Weather Stations

Elev 450 ft 43.17 °N, 76.34 °W | Updated 5 minutes ago

Mostly Cloudy
Mostly Cloudy
62.4 °F
Feels Like 62.4 °F
N
0.0
Wind Variable Wind from ESE

Today
High -- | Low -- °F
--% Chance of Precip.
Yesterday
High -- | Low -- °F
Precip. -- in
5:28 AM 8:49 PM
Waxing Gibbous, 97% visible
Pressure 29.89 in
Visibility 10.0 miles
Clouds Scattered Clouds 3500 ft
Overcast 10000 ft
Dew Point 59 °F
Humidity 89%
Rainfall in
Snow Depth Not available.
UV 3 out of 12
Pollen .60 out of 12
Air Quality Not available.
Flu Activity Sporadic
METAR KFZY 301454Z AUTO 12004KT 10SM -RA SCT035 OVC100 18/15 A2989 RMK AO2 SLP120 P0001 60003 T01780150 58008

More Conditions Fewer Conditions

Pressure 29.89 in
Visibility 10.0 miles
Clouds Scattered Clouds 3500 ft
Overcast 10000 ft
Dew Point 59 °F
Humidity 89%
Rainfall in
Snow Depth Not available.
UV 3 out of 12
Pollen .60 out of 12
Air Quality Not available.
Flu Activity Sporadic
METAR KFZY 301454Z AUTO 12004KT 10SM -RA SCT035 OVC100 18/15 A2989 RMK AO2 SLP120 P0001 60003 T01780150 58008

More Conditions Fewer Conditions

10-Day Weather Forecast

×

Almanac

Astronomy

Jun. 30, 2015 Rise Set
Actual Time
Civil Twilight
Nautical Twilight
Astronomical Twilight
Moon
Length of Visible Light
Length of Day
Tomorrow will be .
, % of the Moon is Illuminated

Today's Extremes

State Highs State Lows

Community

WunderPhotos

Upload Photos

1,834,017 photos uploaded!

WunderBlogs® & News

Nearby

Air Quality

  Air Quality AQ Index Pollutant
Not available.

Snow Depth

Station Depth Elevation

Earthquake Activity

City Distance Mag. Time & Date
Minimum magnitude displayed is 2.5.

Coastal Water Temperatures

Place Temperature

Stations

Nearby Weather Stations

Station Location Temp. Windchill Dew Point Humidity Wind Precip. Elev Updated Type